createdAt,value
2022-09-06T00:08:54.848Z,20.49
2022-09-06T00:20:55.301Z,20.69
2022-09-06T00:32:55.741Z,20.76
2022-09-06T00:44:56.211Z,20.63
2022-09-06T00:56:56.648Z,20.32
2022-09-06T01:08:57.165Z,20.06
2022-09-06T01:20:57.574Z,20.38
2022-09-06T01:32:58.056Z,20.21
2022-09-06T01:44:58.507Z,20.10
2022-09-06T01:56:58.926Z,19.94
2022-09-06T02:08:59.356Z,19.24
2022-09-06T02:20:59.830Z,19.76
2022-09-06T02:33:00.294Z,19.33
2022-09-06T02:45:00.767Z,19.41
2022-09-06T02:57:01.178Z,18.40
2022-09-06T03:09:01.616Z,19.24
2022-09-06T03:21:02.063Z,17.64
2022-09-06T03:33:03.072Z,18.36
2022-09-06T03:45:03.011Z,19.13
2022-09-06T03:57:03.451Z,18.99
2022-09-06T04:09:03.928Z,19.00
2022-09-06T04:21:04.383Z,18.92
2022-09-06T04:33:04.842Z,18.47
2022-09-06T04:45:05.288Z,18.67
2022-09-06T04:57:05.767Z,18.34
2022-09-06T05:09:06.221Z,18.39
2022-09-06T05:21:06.650Z,18.51
2022-09-06T05:33:07.090Z,18.46
2022-09-06T05:45:07.556Z,19.28
2022-09-06T05:57:08.023Z,19.33
2022-09-06T06:09:08.481Z,19.91
2022-09-06T06:21:08.940Z,20.08
2022-09-06T06:33:09.363Z,20.79
2022-09-06T06:45:09.823Z,21.28
2022-09-06T06:57:10.275Z,22.10
2022-09-06T07:09:10.754Z,24.18
2022-09-06T07:21:38.561Z,25.70
2022-09-06T07:33:11.681Z,25.67
2022-09-06T07:45:12.103Z,26.25
2022-09-06T07:57:12.556Z,27.54
2022-09-06T08:09:13.028Z,28.12
2022-09-06T08:21:13.498Z,29.53
2022-09-06T08:33:13.953Z,29.62
2022-09-06T08:45:14.367Z,30.40
2022-09-06T08:57:14.848Z,31.03
2022-09-06T09:09:15.329Z,30.82
2022-09-06T09:21:15.767Z,31.27
2022-09-06T09:33:16.178Z,31.62
2022-09-06T09:45:16.633Z,31.04
2022-09-06T09:57:17.149Z,31.77
2022-09-06T10:09:19.188Z,32.72
2022-09-06T10:21:18.034Z,31.45
2022-09-06T10:33:18.467Z,32.68
2022-09-06T10:45:18.969Z,31.67
2022-09-06T11:09:19.837Z,31.66
2022-09-06T11:21:20.339Z,33.95
2022-09-06T11:33:20.811Z,32.53
2022-09-06T11:45:21.237Z,33.76
2022-09-06T11:57:21.727Z,32.89
2022-09-06T12:09:22.152Z,33.46
2022-09-06T12:21:22.619Z,34.16
2022-09-06T12:33:23.067Z,30.99
2022-09-06T12:45:27.175Z,33.45
2022-09-06T12:57:23.976Z,31.41
2022-09-06T13:09:24.465Z,33.07
2022-09-06T13:21:24.903Z,32.64
2022-09-06T13:33:25.360Z,33.20
2022-09-06T13:45:25.808Z,32.34
2022-09-06T13:57:26.306Z,33.45
2022-09-06T14:09:26.736Z,32.89
2022-09-06T14:21:27.182Z,33.05
2022-09-06T14:33:27.642Z,33.84
2022-09-06T14:45:28.124Z,34.91
2022-09-06T14:57:28.774Z,35.50
2022-09-06T15:09:29.000Z,33.35
2022-09-06T15:21:29.435Z,30.45
2022-09-06T15:33:30.150Z,29.60
2022-09-06T15:45:30.368Z,28.59
2022-09-06T15:57:30.829Z,30.59
2022-09-06T16:09:31.254Z,29.22
2022-09-06T16:21:31.780Z,29.07
2022-09-06T16:33:32.215Z,27.18
2022-09-06T16:45:32.661Z,24.88
2022-09-06T16:57:33.083Z,25.92
2022-09-06T17:09:33.596Z,26.14
2022-09-06T17:21:34.041Z,25.66
2022-09-06T17:33:34.499Z,25.49
2022-09-06T17:45:34.989Z,25.06
2022-09-06T17:57:35.434Z,24.76
2022-09-06T18:09:35.812Z,24.77
2022-09-06T18:21:36.334Z,24.23
2022-09-06T18:33:36.771Z,23.44
2022-09-06T18:45:37.271Z,23.76
2022-09-06T18:57:37.667Z,24.35
2022-09-06T19:09:38.175Z,24.07
2022-09-06T19:21:41.982Z,23.41
2022-09-06T19:33:39.068Z,23.61
2022-09-06T19:45:39.485Z,23.87
2022-09-06T19:57:39.949Z,23.47
2022-09-06T20:09:40.424Z,23.81
2022-09-06T20:21:40.879Z,23.81
2022-09-06T20:33:43.748Z,23.51
2022-09-06T20:45:41.746Z,23.10
2022-09-06T20:57:42.231Z,23.61
2022-09-06T21:09:42.698Z,23.24
2022-09-06T21:21:43.135Z,23.16
2022-09-06T21:33:43.603Z,22.56
2022-09-06T21:45:44.067Z,22.74
2022-09-06T21:57:44.536Z,22.94
2022-09-06T22:09:44.946Z,22.22
2022-09-06T22:21:45.425Z,22.09
2022-09-06T22:33:45.884Z,22.68
2022-09-06T22:45:51.212Z,21.68
2022-09-06T22:57:46.784Z,21.76
2022-09-06T23:09:47.224Z,22.37
2022-09-06T23:21:47.633Z,20.83
2022-09-06T23:33:48.109Z,21.70
2022-09-06T23:45:48.613Z,21.75
2022-09-06T23:57:49.065Z,21.56
